createdAt,value
2018-09-10T00:02:03.475Z,19.82
2018-09-10T00:04:33.817Z,19.79
2018-09-10T00:07:04.315Z,19.72
2018-09-10T00:09:35.109Z,19.66
2018-09-10T00:12:05.638Z,19.71
2018-09-10T00:14:36.324Z,19.71
2018-09-10T00:17:06.926Z,19.68
2018-09-10T00:19:37.390Z,19.65
2018-09-10T00:22:07.850Z,19.63
2018-09-10T00:24:38.308Z,19.49
2018-09-10T00:27:08.744Z,19.56
2018-09-10T00:29:39.327Z,19.51
2018-09-10T00:32:09.670Z,19.44
2018-09-10T00:34:40.131Z,19.46
2018-09-10T00:37:10.499Z,19.43
2018-09-10T00:39:40.800Z,19.41
2018-09-10T00:42:11.214Z,19.51
2018-09-10T00:44:41.400Z,19.37
2018-09-10T00:47:11.817Z,19.32
2018-09-10T00:49:42.240Z,19.27
2018-09-10T00:52:12.501Z,19.20
2018-09-10T00:54:42.796Z,19.17
2018-09-10T00:57:13.208Z,19.21
2018-09-10T00:59:43.731Z,19.25
2018-09-10T01:02:16.798Z,19.25
2018-09-10T01:04:46.990Z,19.18
2018-09-10T01:07:17.343Z,19.18
2018-09-10T01:09:47.624Z,19.15
2018-09-10T01:12:17.878Z,19.09
2018-09-10T01:14:48.182Z,19.03
2018-09-10T01:17:18.507Z,19.00
2018-09-10T01:19:48.803Z,19.00
2018-09-10T01:22:19.274Z,19.00
2018-09-10T01:24:49.848Z,19.04
2018-09-10T01:27:20.139Z,19.07
2018-09-10T01:29:50.404Z,19.04
2018-09-10T01:32:20.788Z,19.02
2018-09-10T01:34:56.185Z,19.01
2018-09-10T01:37:26.531Z,18.93
2018-09-10T01:39:56.737Z,18.96
2018-09-10T01:42:27.175Z,18.94
2018-09-10T01:44:57.677Z,18.87
2018-09-10T01:47:28.254Z,18.83
2018-09-10T01:49:58.695Z,18.88
2018-09-10T01:52:29.612Z,18.84
2018-09-10T01:55:00.013Z,18.87
2018-09-10T01:57:30.349Z,18.86
2018-09-10T02:00:00.723Z,18.88
2018-09-10T02:02:30.938Z,18.81
2018-09-10T02:05:01.276Z,18.80
2018-09-10T02:07:31.681Z,18.75
2018-09-10T02:10:01.951Z,18.72
2018-09-10T02:12:32.177Z,18.78
2018-09-10T02:15:02.611Z,18.70
2018-09-10T02:17:33.194Z,18.63
2018-09-10T02:20:03.478Z,18.60
2018-09-10T02:22:33.776Z,18.51
2018-09-10T02:25:04.157Z,18.46
2018-09-10T02:27:34.553Z,18.50
2018-09-10T02:30:05.223Z,18.52
2018-09-10T02:32:35.506Z,18.54
2018-09-10T02:35:05.707Z,18.62
2018-09-10T02:37:36.136Z,18.53
2018-09-10T02:40:06.677Z,18.52
2018-09-10T02:42:36.929Z,18.53
2018-09-10T02:45:07.659Z,18.53
2018-09-10T02:47:38.111Z,18.55
2018-09-10T02:50:08.659Z,18.62
2018-09-10T02:52:39.342Z,18.52
2018-09-10T02:55:09.830Z,18.48
2018-09-10T02:57:40.344Z,18.48
2018-09-10T03:00:10.966Z,18.48
2018-09-10T03:02:41.807Z,18.54
2018-09-10T03:05:12.093Z,18.58
2018-09-10T03:07:42.559Z,18.63
2018-09-10T03:10:12.980Z,18.70
2018-09-10T03:12:43.522Z,18.71
2018-09-10T03:15:13.790Z,18.75
2018-09-10T03:17:44.271Z,18.64
2018-09-10T03:20:14.859Z,18.58
2018-09-10T03:22:45.206Z,18.58
2018-09-10T03:25:15.532Z,18.60
2018-09-10T03:27:45.868Z,18.60
2018-09-10T03:30:16.182Z,18.60
2018-09-10T03:32:49.279Z,18.56
2018-09-10T03:35:19.612Z,18.52
2018-09-10T03:37:50.338Z,18.43
2018-09-10T03:40:20.703Z,18.32
2018-09-10T03:42:50.865Z,18.27
2018-09-10T03:45:21.194Z,18.29
2018-09-10T03:47:51.646Z,18.24
2018-09-10T03:50:21.890Z,18.27
2018-09-10T03:52:52.149Z,18.22
2018-09-10T03:55:22.475Z,18.15
2018-09-10T03:57:53.022Z,18.16
2018-09-10T04:00:23.426Z,18.14
2018-09-10T04:02:53.760Z,18.20
2018-09-10T04:05:24.171Z,18.23
2018-09-10T04:07:54.699Z,18.23
2018-09-10T04:10:25.210Z,18.17
2018-09-10T04:12:55.707Z,18.20
2018-09-10T04:15:26.574Z,18.21
2018-09-10T04:17:56.868Z,18.11
2018-09-10T04:20:27.132Z,18.05
2018-09-10T04:22:57.624Z,18.03
2018-09-10T04:25:27.894Z,18.03
2018-09-10T04:27:58.149Z,17.99
2018-09-10T04:30:28.450Z,17.93
2018-09-10T04:32:58.873Z,18.01
2018-09-10T04:35:29.856Z,18.03
2018-09-10T04:38:01.044Z,18.01
2018-09-10T04:40:31.372Z,18.00
2018-09-10T04:43:01.721Z,17.96
2018-09-10T04:45:32.150Z,17.94
2018-09-10T04:48:02.640Z,17.97
2018-09-10T04:50:33.005Z,17.96
2018-09-10T04:53:03.174Z,17.90
2018-09-10T04:55:33.623Z,17.92
2018-09-10T04:58:04.335Z,17.99
2018-09-10T05:00:34.626Z,17.98
2018-09-10T05:03:05.039Z,17.99
2018-09-10T05:05:35.424Z,18.00
2018-09-10T05:08:05.832Z,18.02
2018-09-10T05:10:36.070Z,18.00
2018-09-10T05:13:06.585Z,18.04
2018-09-10T05:15:36.883Z,18.06
2018-09-10T05:18:07.428Z,17.98
2018-09-10T05:20:37.887Z,17.97
2018-09-10T05:23:08.315Z,18.04
2018-09-10T05:25:38.687Z,18.03
2018-09-10T05:28:09.242Z,18.04
2018-09-10T05:30:39.397Z,18.06
2018-09-10T05:33:09.784Z,18.04
2018-09-10T05:35:40.231Z,18.08
2018-09-10T05:38:10.530Z,18.12
2018-09-10T05:40:40.820Z,18.15
2018-09-10T05:43:11.123Z,18.17
2018-09-10T05:45:41.564Z,18.15
2018-09-10T05:48:12.103Z,18.21
2018-09-10T05:50:42.466Z,18.25
2018-09-10T05:53:12.807Z,18.30
2018-09-10T05:55:43.063Z,18.31
2018-09-10T05:58:13.332Z,18.36
2018-09-10T06:00:43.679Z,18.40
2018-09-10T06:03:14.050Z,18.43
2018-09-10T06:05:44.462Z,18.33
2018-09-10T06:08:15.040Z,18.40
2018-09-10T06:10:45.279Z,18.49
2018-09-10T06:13:15.568Z,18.56
2018-09-10T06:15:45.855Z,18.60
2018-09-10T06:18:16.292Z,18.66
2018-09-10T06:20:46.612Z,18.76
2018-09-10T06:23:17.189Z,18.76
2018-09-10T06:25:47.393Z,18.78
2018-09-10T06:28:17.490Z,18.85
2018-09-10T06:30:47.730Z,18.95
2018-09-10T06:33:18.608Z,18.97
2018-09-10T06:35:48.755Z,18.96
2018-09-10T06:38:19.157Z,18.92
2018-09-10T06:40:49.530Z,18.97
2018-09-10T06:43:19.734Z,19.10
2018-09-10T06:45:50.207Z,19.15
2018-09-10T06:48:20.616Z,19.21
2018-09-10T06:50:51.101Z,19.27
2018-09-10T06:53:21.886Z,19.44
2018-09-10T06:55:52.069Z,19.49
2018-09-10T06:58:22.410Z,19.59
2018-09-10T07:00:52.828Z,19.61
2018-09-10T07:03:23.096Z,19.57
2018-09-10T07:05:53.265Z,19.52
2018-09-10T07:08:23.738Z,19.61
2018-09-10T07:10:54.667Z,19.66
2018-09-10T07:13:25.443Z,19.77
2018-09-10T07:15:55.700Z,19.85
2018-09-10T07:18:25.962Z,19.92
2018-09-10T07:20:56.378Z,20.02
2018-09-10T07:23:26.749Z,20.14
2018-09-10T07:25:57.128Z,20.20
2018-09-10T07:28:27.658Z,20.27
2018-09-10T07:30:57.951Z,20.35
2018-09-10T07:33:28.299Z,20.46
2018-09-10T07:35:58.833Z,20.53
2018-09-10T07:38:29.362Z,20.57
2018-09-10T07:40:59.783Z,20.66
2018-09-10T07:43:30.147Z,20.70
2018-09-10T07:46:00.432Z,20.80
2018-09-10T07:48:30.889Z,20.93
2018-09-10T07:51:01.214Z,20.98
2018-09-10T07:53:31.527Z,21.00
2018-09-10T07:56:01.703Z,21.06
2018-09-10T07:58:32.144Z,21.11
2018-09-10T08:01:02.418Z,21.14
2018-09-10T08:03:32.952Z,21.20
2018-09-10T08:06:03.239Z,21.29
2018-09-10T08:08:33.546Z,21.35
2018-09-10T08:11:03.888Z,21.48
2018-09-10T08:13:34.241Z,21.55
2018-09-10T08:16:04.651Z,21.65
2018-09-10T08:18:34.875Z,21.81
2018-09-10T08:21:05.251Z,22.00
2018-09-10T08:23:35.553Z,22.19
2018-09-10T08:26:06.176Z,22.26
2018-09-10T08:28:36.378Z,22.40
2018-09-10T08:31:07.443Z,22.53
2018-09-10T08:33:37.727Z,22.72
2018-09-10T08:36:08.243Z,22.94
2018-09-10T08:38:38.438Z,23.11
2018-09-10T08:41:08.977Z,23.27
2018-09-10T08:43:41.810Z,23.42
2018-09-10T08:46:12.131Z,23.56
2018-09-10T08:48:42.611Z,23.73
2018-09-10T08:51:12.825Z,23.88
2018-09-10T08:53:43.300Z,24.03
2018-09-10T08:56:13.922Z,24.18
2018-09-10T08:58:44.155Z,24.36
2018-09-10T09:01:14.358Z,24.57
2018-09-10T09:03:44.872Z,24.65
2018-09-10T09:06:15.292Z,24.82
2018-09-10T09:08:45.570Z,24.93
2018-09-10T09:11:16.011Z,25.09
2018-09-10T09:13:49.289Z,25.27
2018-09-10T09:16:19.534Z,25.38
2018-09-10T09:18:49.856Z,25.56
2018-09-10T09:21:20.339Z,25.74
2018-09-10T09:23:50.913Z,25.97
2018-09-10T09:26:21.068Z,26.27
2018-09-10T09:28:51.666Z,26.44
2018-09-10T09:31:22.160Z,26.65
2018-09-10T09:33:52.618Z,26.82
2018-09-10T09:36:28.228Z,27.04
2018-09-10T09:39:03.813Z,27.25
2018-09-10T09:41:39.295Z,27.37
2018-09-10T09:44:14.713Z,27.65
2018-09-10T09:46:45.229Z,27.96
2018-09-10T09:49:15.424Z,28.17
2018-09-10T09:51:45.748Z,28.39
2018-09-10T09:54:16.065Z,28.56
2018-09-10T09:56:46.627Z,28.54
2018-09-10T09:59:16.947Z,28.77
2018-09-10T10:01:47.457Z,29.14
2018-09-10T10:04:18.150Z,29.33
2018-09-10T10:06:48.491Z,29.23
2018-09-10T10:09:19.079Z,29.36
2018-09-10T10:11:49.455Z,29.62
2018-09-10T10:14:19.743Z,29.86
2018-09-10T10:16:50.206Z,30.00
2018-09-10T10:19:20.784Z,29.97
2018-09-10T10:21:51.068Z,29.87
2018-09-10T10:24:22.655Z,29.96
2018-09-10T10:26:52.941Z,30.46
2018-09-10T10:29:23.041Z,30.92
2018-09-10T10:31:53.540Z,31.36
2018-09-10T10:34:23.816Z,31.77
2018-09-10T10:36:54.245Z,32.16
2018-09-10T10:39:24.724Z,32.48
2018-09-10T10:41:55.245Z,32.85
2018-09-10T10:44:25.832Z,32.79
2018-09-10T10:46:56.159Z,31.94
2018-09-10T10:49:26.735Z,31.84
2018-09-10T10:51:57.213Z,32.05
2018-09-10T10:54:27.695Z,32.33
2018-09-10T10:56:57.969Z,32.45
2018-09-10T10:59:28.324Z,32.18
2018-09-10T11:01:58.712Z,32.30
2018-09-10T11:04:29.685Z,32.57
2018-09-10T11:06:59.995Z,33.15
2018-09-10T11:09:30.970Z,32.82
2018-09-10T11:12:01.526Z,32.77
2018-09-10T11:14:32.529Z,33.25
2018-09-10T11:17:02.727Z,34.03
2018-09-10T11:19:33.919Z,34.32
2018-09-10T11:22:04.283Z,34.66
2018-09-10T11:24:35.322Z,35.02
2018-09-10T11:27:05.778Z,34.99
2018-09-10T11:29:36.250Z,34.90
2018-09-10T11:32:06.730Z,35.12
2018-09-10T11:34:37.303Z,35.45
2018-09-10T11:37:07.709Z,35.83
2018-09-10T11:39:38.191Z,35.20
2018-09-10T11:42:08.752Z,34.96
2018-09-10T11:44:39.507Z,34.84
2018-09-10T11:47:09.811Z,34.40
2018-09-10T11:49:40.169Z,34.53
2018-09-10T11:52:10.694Z,34.68
2018-09-10T11:54:41.214Z,35.11
2018-09-10T11:57:11.877Z,35.69
2018-09-10T11:59:42.470Z,36.08
2018-09-10T12:02:12.726Z,36.44
2018-09-10T12:04:43.154Z,37.01
2018-09-10T12:07:13.598Z,38.77
2018-09-10T12:09:44.110Z,42.19
2018-09-10T12:12:14.746Z,44.74
2018-09-10T12:14:45.141Z,47.70
2018-09-10T12:17:15.594Z,49.33
2018-09-10T12:19:46.167Z,49.85
2018-09-10T12:22:16.579Z,49.79
2018-09-10T12:24:46.822Z,51.30
2018-09-10T12:27:17.257Z,51.92
2018-09-10T12:29:47.420Z,53.44
2018-09-10T12:32:17.801Z,53.14
2018-09-10T12:34:48.112Z,51.61
2018-09-10T12:37:18.562Z,50.45
2018-09-10T12:39:49.053Z,51.95
2018-09-10T12:42:19.383Z,54.31
2018-09-10T12:44:49.866Z,54.70
2018-09-10T12:47:20.755Z,54.57
2018-09-10T12:49:50.970Z,54.97
2018-09-10T12:52:21.551Z,55.46
2018-09-10T12:54:51.968Z,55.84
2018-09-10T12:57:22.454Z,56.46
2018-09-10T12:59:52.669Z,56.62
2018-09-10T13:02:23.145Z,54.76
2018-09-10T13:04:53.518Z,53.76
2018-09-10T13:07:23.739Z,51.76
2018-09-10T13:09:54.307Z,51.64
2018-09-10T13:12:24.580Z,52.31
2018-09-10T13:14:55.075Z,51.63
2018-09-10T13:17:25.492Z,50.80
2018-09-10T13:19:55.864Z,51.03
2018-09-10T13:22:26.355Z,52.81
2018-09-10T13:24:56.711Z,53.64
2018-09-10T13:27:26.946Z,54.07
2018-09-10T13:29:57.223Z,53.52
2018-09-10T13:32:27.606Z,54.21
2018-09-10T13:34:57.975Z,55.66
2018-09-10T13:37:28.471Z,56.11
2018-09-10T13:40:05.596Z,54.81
2018-09-10T13:42:36.112Z,55.04
2018-09-10T13:45:06.423Z,56.00
2018-09-10T13:47:36.688Z,55.75
2018-09-10T13:50:06.975Z,54.85
2018-09-10T13:52:37.471Z,53.83
2018-09-10T13:55:08.015Z,53.66
2018-09-10T13:57:38.296Z,53.02
2018-09-10T14:00:08.602Z,50.85
2018-09-10T14:02:38.859Z,48.72
2018-09-10T14:05:09.213Z,49.54
2018-09-10T14:07:45.871Z,48.35
2018-09-10T14:10:16.143Z,47.56
2018-09-10T14:12:46.407Z,48.62
2018-09-10T14:15:16.875Z,49.58
2018-09-10T14:17:47.248Z,49.72
2018-09-10T14:20:17.729Z,48.65
2018-09-10T14:22:47.961Z,49.46
2018-09-10T14:25:18.524Z,50.42
2018-09-10T14:27:49.078Z,48.76
2018-09-10T14:30:19.766Z,46.03
2018-09-10T14:32:50.099Z,44.91
2018-09-10T14:35:20.460Z,44.25
2018-09-10T14:37:50.937Z,44.53
2018-09-10T14:40:21.558Z,44.30
2018-09-10T14:42:51.907Z,45.02
2018-09-10T14:45:22.378Z,45.01
2018-09-10T14:47:55.454Z,45.96
2018-09-10T14:50:25.901Z,46.34
2018-09-10T14:52:56.269Z,46.80
2018-09-10T14:55:26.586Z,47.37
2018-09-10T14:57:56.837Z,47.35
2018-09-10T15:00:28.319Z,46.51
2018-09-10T15:02:58.743Z,45.94
2018-09-10T15:05:29.131Z,45.52
2018-09-10T15:07:59.392Z,43.93
2018-09-10T15:10:29.811Z,42.64
2018-09-10T15:13:00.273Z,41.76
2018-09-10T15:15:30.575Z,41.69
2018-09-10T15:18:01.531Z,41.09
2018-09-10T15:20:31.994Z,41.27
2018-09-10T15:23:02.136Z,41.26
2018-09-10T15:25:32.485Z,40.82
2018-09-10T15:28:02.754Z,40.78
2018-09-10T15:30:33.054Z,40.66
2018-09-10T15:33:03.601Z,40.70
2018-09-10T15:35:33.799Z,40.14
2018-09-10T15:38:10.652Z,39.73
2018-09-10T15:40:40.951Z,38.63
2018-09-10T15:43:11.224Z,37.70
2018-09-10T15:45:41.564Z,36.50
2018-09-10T15:48:11.800Z,36.09
2018-09-10T15:50:42.212Z,36.13
2018-09-10T15:53:12.718Z,36.09
2018-09-10T15:55:42.972Z,35.22
2018-09-10T15:58:13.291Z,34.82
2018-09-10T16:00:43.699Z,34.63
2018-09-10T16:03:13.637Z,34.45
2018-09-10T16:05:43.671Z,34.23
2018-09-10T16:08:14.106Z,34.00
2018-09-10T16:10:44.600Z,33.80
2018-09-10T16:13:14.821Z,33.69
2018-09-10T16:15:45.165Z,33.73
2018-09-10T16:18:15.570Z,33.92
2018-09-10T16:20:45.889Z,33.99
2018-09-10T16:23:16.225Z,33.82
2018-09-10T16:25:46.507Z,33.49
2018-09-10T16:28:16.782Z,33.45
2018-09-10T16:30:47.007Z,33.28
2018-09-10T16:33:17.319Z,32.98
2018-09-10T16:35:47.574Z,32.66
2018-09-10T16:38:17.950Z,32.42
2018-09-10T16:40:48.518Z,32.39
2018-09-10T16:43:18.941Z,32.28
2018-09-10T16:45:49.258Z,32.00
2018-09-10T16:48:19.674Z,31.84
2018-09-10T16:50:50.286Z,31.59
2018-09-10T16:53:20.389Z,31.40
2018-09-10T16:55:50.891Z,30.96
2018-09-10T16:58:22.101Z,30.68
2018-09-10T17:00:52.600Z,30.33
2018-09-10T17:03:22.849Z,30.16
2018-09-10T17:05:53.363Z,29.97
2018-09-10T17:08:23.519Z,29.62
2018-09-10T17:10:54.215Z,29.38
2018-09-10T17:13:24.430Z,29.20
2018-09-10T17:15:54.794Z,28.82
2018-09-10T17:18:25.222Z,28.59
2018-09-10T17:20:55.515Z,28.40
2018-09-10T17:23:25.933Z,28.14
2018-09-10T17:25:56.511Z,27.96
2018-09-10T17:28:26.668Z,27.88
2018-09-10T17:30:57.303Z,27.61
2018-09-10T17:33:27.633Z,27.39
2018-09-10T17:35:58.085Z,27.28
2018-09-10T17:38:28.523Z,27.04
2018-09-10T17:40:58.848Z,27.02
2018-09-10T17:43:29.269Z,26.84
2018-09-10T17:45:59.929Z,26.77
2018-09-10T17:48:30.350Z,26.67
2018-09-10T17:51:00.674Z,26.54
2018-09-10T17:53:31.261Z,26.54
2018-09-10T17:56:01.843Z,26.51
2018-09-10T17:58:32.371Z,26.28
2018-09-10T18:01:02.740Z,26.23
2018-09-10T18:03:33.164Z,26.14
2018-09-10T18:06:03.434Z,26.09
2018-09-10T18:08:33.713Z,25.99
2018-09-10T18:11:04.200Z,25.88
2018-09-10T18:13:34.524Z,25.81
2018-09-10T18:16:04.958Z,25.69
2018-09-10T18:18:35.408Z,25.58
2018-09-10T18:21:05.908Z,25.67
2018-09-10T18:23:36.325Z,25.66
2018-09-10T18:26:06.772Z,25.66
2018-09-10T18:28:36.964Z,25.54
2018-09-10T18:31:07.413Z,25.42
2018-09-10T18:33:38.252Z,25.25
2018-09-10T18:36:09.308Z,25.11
2018-09-10T18:38:39.861Z,25.00
2018-09-10T18:41:10.281Z,24.84
2018-09-10T18:43:40.690Z,24.76
2018-09-10T18:46:11.030Z,24.75
2018-09-10T18:48:41.514Z,24.65
2018-09-10T18:51:12.035Z,24.49
2018-09-10T18:53:42.561Z,24.39
2018-09-10T18:56:12.944Z,24.13
2018-09-10T18:58:43.522Z,24.00
2018-09-10T19:01:13.979Z,23.90
2018-09-10T19:03:44.251Z,23.89
2018-09-10T19:06:14.718Z,23.82
2018-09-10T19:08:45.124Z,23.83
2018-09-10T19:11:16.055Z,23.80
2018-09-10T19:13:46.490Z,23.89
2018-09-10T19:16:16.946Z,23.87
2018-09-10T19:18:47.335Z,23.74
2018-09-10T19:21:17.567Z,23.81
2018-09-10T19:23:47.768Z,23.73
2018-09-10T19:26:18.327Z,23.68
2018-09-10T19:28:48.727Z,23.68
2018-09-10T19:31:19.186Z,23.47
2018-09-10T19:33:49.609Z,23.46
2018-09-10T19:36:20.068Z,23.41
2018-09-10T19:38:50.339Z,23.29
2018-09-10T19:41:20.907Z,23.23
2018-09-10T19:43:51.066Z,23.05
2018-09-10T19:46:21.510Z,23.13
2018-09-10T19:48:51.930Z,23.17
2018-09-10T19:51:23.032Z,23.08
2018-09-10T19:53:53.540Z,23.05
2018-09-10T19:56:24.031Z,23.04
2018-09-10T19:58:54.495Z,22.99
2018-09-10T20:01:25.128Z,23.00
2018-09-10T20:03:55.426Z,22.89
2018-09-10T20:06:25.786Z,22.90
2018-09-10T20:08:56.344Z,22.89
2018-09-10T20:11:26.860Z,22.78
2018-09-10T20:13:57.177Z,22.69
2018-09-10T20:16:27.591Z,22.68
2018-09-10T20:18:58.192Z,22.61
2018-09-10T20:21:28.511Z,22.63
2018-09-10T20:23:58.975Z,22.57
2018-09-10T20:26:29.206Z,22.53
2018-09-10T20:28:59.769Z,22.45
2018-09-10T20:31:30.177Z,22.47
2018-09-10T20:34:06.105Z,22.44
2018-09-10T20:36:37.460Z,22.40
2018-09-10T20:39:12.519Z,22.24
2018-09-10T20:41:43.120Z,22.18
2018-09-10T20:44:13.672Z,22.17
2018-09-10T20:46:43.948Z,22.14
2018-09-10T20:49:14.320Z,22.08
2018-09-10T20:51:44.754Z,22.10
2018-09-10T20:54:15.284Z,22.14
2018-09-10T20:56:45.439Z,22.13
2018-09-10T20:59:15.700Z,21.98
2018-09-10T21:01:46.039Z,21.87
2018-09-10T21:04:16.327Z,21.90
2018-09-10T21:06:46.673Z,21.88
2018-09-10T21:09:17.085Z,21.86
2018-09-10T21:11:47.568Z,21.81
2018-09-10T21:14:18.030Z,21.69
2018-09-10T21:16:48.391Z,21.68
2018-09-10T21:19:19.128Z,21.66
2018-09-10T21:21:49.553Z,21.66
2018-09-10T21:24:19.909Z,21.66
2018-09-10T21:26:50.198Z,21.60
2018-09-10T21:29:20.509Z,21.63
2018-09-10T21:31:50.845Z,21.64
2018-09-10T21:34:21.253Z,21.59
2018-09-10T21:36:51.797Z,21.48
2018-09-10T21:39:22.096Z,21.51
2018-09-10T21:41:52.435Z,21.49
2018-09-10T21:44:22.769Z,21.34
2018-09-10T21:46:53.076Z,21.31
2018-09-10T21:49:23.633Z,21.16
2018-09-10T21:51:53.954Z,21.19
2018-09-10T21:54:24.262Z,21.19
2018-09-10T21:56:54.747Z,21.13
2018-09-10T21:59:25.219Z,21.09
2018-09-10T22:01:55.511Z,21.02
2018-09-10T22:04:26.022Z,21.02
2018-09-10T22:06:56.449Z,20.97
2018-09-10T22:09:27.025Z,20.92
2018-09-10T22:12:02.448Z,20.88
2018-09-10T22:14:33.945Z,20.85
2018-09-10T22:17:04.206Z,20.85
2018-09-10T22:19:34.491Z,20.78
2018-09-10T22:22:05.045Z,20.66
2018-09-10T22:24:35.395Z,20.73
2018-09-10T22:27:05.844Z,20.65
2018-09-10T22:29:36.135Z,20.61
2018-09-10T22:32:06.537Z,20.59
2018-09-10T22:34:37.021Z,20.49
2018-09-10T22:37:07.552Z,20.56
2018-09-10T22:39:37.776Z,20.40
2018-09-10T22:42:08.197Z,20.33
2018-09-10T22:44:38.516Z,20.25
2018-09-10T22:47:08.975Z,20.23
2018-09-10T22:49:39.499Z,20.09
2018-09-10T22:52:09.834Z,20.10
2018-09-10T22:54:40.120Z,20.12
2018-09-10T22:57:10.615Z,20.15
2018-09-10T22:59:41.011Z,20.01
2018-09-10T23:02:11.559Z,19.99
2018-09-10T23:04:41.873Z,19.93
2018-09-10T23:07:12.156Z,19.96
2018-09-10T23:09:42.611Z,19.99
2018-09-10T23:12:13.094Z,19.94
2018-09-10T23:14:43.554Z,19.83
2018-09-10T23:17:13.839Z,19.78
2018-09-10T23:19:44.362Z,19.84
2018-09-10T23:22:14.675Z,19.84
2018-09-10T23:24:45.163Z,19.78
2018-09-10T23:27:15.455Z,19.79
2018-09-10T23:29:45.913Z,19.71
2018-09-10T23:32:16.227Z,19.70
2018-09-10T23:34:46.499Z,19.74
2018-09-10T23:37:16.808Z,19.71
2018-09-10T23:39:47.311Z,19.57
2018-09-10T23:42:17.869Z,19.60
2018-09-10T23:44:48.164Z,19.57
2018-09-10T23:47:18.729Z,19.52
2018-09-10T23:49:49.038Z,19.49
2018-09-10T23:52:19.479Z,19.49
2018-09-10T23:54:49.991Z,19.37
2018-09-10T23:57:20.441Z,19.37
2018-09-10T23:59:50.697Z,19.29
